createdAt,value
2023-11-25T00:00:08.566Z,95.05
2023-11-25T00:02:36.292Z,94.96
2023-11-25T00:05:06.869Z,94.62
2023-11-25T00:07:36.269Z,95.21
2023-11-25T00:10:06.622Z,94.68
2023-11-25T00:12:34.373Z,94.79
2023-11-25T00:15:02.201Z,94.72
2023-11-25T00:17:31.284Z,95.57
2023-11-25T00:19:59.880Z,95.08
2023-11-25T00:22:29.149Z,95.21
2023-11-25T00:24:57.397Z,95.31
2023-11-25T00:27:25.064Z,95.63
2023-11-25T00:29:52.769Z,95.64
2023-11-25T00:32:21.393Z,95.76
2023-11-25T00:34:49.192Z,95.56
2023-11-25T00:37:17.543Z,95.60
2023-11-25T00:39:46.695Z,95.58
2023-11-25T00:42:15.181Z,95.61
2023-11-25T00:44:43.030Z,95.10
2023-11-25T00:47:14.166Z,94.88
2023-11-25T00:49:44.715Z,95.50
2023-11-25T00:52:13.102Z,95.27
2023-11-25T00:54:40.834Z,95.49
2023-11-25T00:57:09.915Z,95.38
2023-11-25T00:59:37.805Z,95.83
2023-11-25T01:02:06.649Z,94.92
2023-11-25T01:04:34.562Z,94.98
2023-11-25T01:07:02.299Z,94.76
2023-11-25T01:09:31.874Z,95.20
2023-11-25T01:11:59.531Z,95.05
2023-11-25T01:14:28.555Z,95.07
2023-11-25T01:16:56.357Z,94.78
2023-11-25T01:19:24.404Z,95.38
2023-11-25T01:21:53.795Z,95.05
2023-11-25T01:24:21.387Z,95.32
2023-11-25T01:26:49.659Z,95.04
2023-11-25T01:29:19.126Z,95.34
2023-11-25T01:31:48.098Z,95.14
2023-11-25T01:34:15.817Z,95.88
2023-11-25T01:36:43.608Z,95.57
2023-11-25T01:39:11.259Z,95.10
2023-11-25T01:41:38.985Z,95.08
2023-11-25T01:44:08.595Z,95.09
2023-11-25T01:46:40.682Z,95.64
2023-11-25T01:49:13.902Z,94.53
2023-11-25T01:51:44.964Z,95.79
2023-11-25T01:54:15.217Z,95.38
2023-11-25T01:56:43.757Z,95.03
2023-11-25T01:59:13.558Z,94.99
2023-11-25T02:01:41.461Z,95.01
2023-11-25T02:04:10.707Z,95.56
2023-11-25T02:06:38.500Z,95.52
2023-11-25T02:09:06.594Z,95.26
2023-11-25T02:11:35.025Z,95.28
2023-11-25T02:14:02.845Z,95.11
2023-11-25T02:16:30.611Z,95.71
2023-11-25T02:18:58.184Z,95.71
2023-11-25T02:21:27.245Z,95.25
2023-11-25T02:23:56.221Z,95.73
2023-11-25T02:26:23.877Z,95.46
2023-11-25T02:28:51.696Z,95.49
2023-11-25T02:31:19.458Z,95.24
2023-11-25T02:33:47.129Z,95.71
2023-11-25T02:36:17.650Z,95.33
2023-11-25T02:38:46.864Z,95.88
2023-11-25T02:41:15.902Z,95.88
2023-11-25T02:43:43.851Z,95.56
2023-11-25T02:46:11.584Z,95.83
2023-11-25T02:48:40.327Z,95.68
2023-11-25T02:51:09.560Z,95.37
2023-11-25T02:53:37.165Z,95.92
2023-11-25T02:56:05.103Z,96.01
2023-11-25T02:58:34.418Z,95.54
2023-11-25T03:01:08.111Z,95.20
2023-11-25T03:03:43.032Z,95.80
2023-11-25T03:06:11.129Z,95.61
2023-11-25T03:08:40.074Z,95.43
2023-11-25T03:11:13.574Z,95.23
2023-11-25T03:13:46.196Z,95.68
2023-11-25T03:16:14.085Z,95.33
2023-11-25T03:18:41.961Z,95.52
2023-11-25T03:21:10.899Z,95.89
2023-11-25T03:23:38.889Z,95.85
2023-11-25T03:26:07.160Z,95.40
2023-11-25T03:28:34.803Z,95.90
2023-11-25T03:31:06.522Z,95.66
2023-11-25T03:33:36.784Z,95.51
2023-11-25T03:36:04.912Z,95.26
2023-11-25T03:38:32.631Z,95.81
2023-11-25T03:41:00.307Z,95.32
2023-11-25T03:43:27.990Z,95.95
2023-11-25T03:45:55.557Z,95.61
2023-11-25T03:48:24.942Z,95.40
2023-11-25T03:50:52.418Z,96.00
2023-11-25T03:53:20.179Z,96.16
2023-11-25T03:55:47.793Z,95.30
2023-11-25T03:58:15.421Z,95.47
2023-11-25T04:00:42.976Z,96.12
2023-11-25T04:03:10.610Z,96.11
2023-11-25T04:05:39.558Z,95.87
2023-11-25T04:08:07.147Z,95.62
2023-11-25T04:10:34.688Z,96.14
2023-11-25T04:13:02.279Z,96.21
2023-11-25T04:15:29.796Z,96.15
2023-11-25T04:17:57.417Z,96.06
2023-11-25T04:20:30.260Z,95.75
2023-11-25T04:23:06.831Z,96.19
2023-11-25T04:25:35.558Z,96.21
2023-11-25T04:28:05.492Z,96.07
2023-11-25T04:30:33.088Z,96.28
2023-11-25T04:33:00.785Z,95.82
2023-11-25T04:35:28.513Z,96.22
2023-11-25T04:37:56.056Z,95.70
2023-11-25T04:40:25.365Z,96.24
2023-11-25T04:42:52.984Z,96.11
2023-11-25T04:45:21.407Z,95.94
2023-11-25T04:47:51.575Z,96.22
2023-11-25T04:50:21.476Z,96.43
2023-11-25T04:52:49.208Z,96.13
2023-11-25T04:55:17.235Z,95.81
2023-11-25T04:57:46.490Z,95.68
2023-11-25T05:00:15.960Z,95.74
2023-11-25T05:02:44.235Z,95.67
2023-11-25T05:05:13.258Z,95.81
2023-11-25T05:07:41.786Z,95.68
2023-11-25T05:10:11.746Z,95.47
2023-11-25T05:12:39.949Z,95.47
2023-11-25T05:15:10.132Z,95.59
2023-11-25T05:17:37.943Z,94.95
2023-11-25T05:20:10.376Z,94.93
2023-11-25T05:22:38.339Z,94.85
2023-11-25T05:25:07.604Z,95.24
2023-11-25T05:27:35.125Z,95.15
2023-11-25T05:30:03.205Z,95.33
2023-11-25T05:32:32.867Z,95.11
2023-11-25T05:35:00.420Z,94.91
2023-11-25T05:37:28.429Z,94.82
2023-11-25T05:39:56.225Z,95.01
2023-11-25T05:42:28.130Z,95.08
2023-11-25T05:44:56.846Z,95.02
2023-11-25T05:47:24.355Z,95.42
2023-11-25T05:49:53.902Z,95.35
2023-11-25T05:52:21.423Z,95.25
2023-11-25T05:54:49.004Z,95.00
2023-11-25T05:57:16.482Z,95.23
2023-11-25T05:59:44.261Z,94.90
2023-11-25T06:02:11.849Z,94.86
2023-11-25T06:04:39.533Z,94.64
2023-11-25T06:07:08.512Z,94.92
2023-11-25T06:09:36.021Z,94.68
2023-11-25T06:12:03.647Z,95.39
2023-11-25T06:14:33.955Z,95.05
2023-11-25T06:17:03.231Z,95.17
2023-11-25T06:19:32.245Z,95.44
2023-11-25T06:22:01.987Z,95.00
2023-11-25T06:24:30.833Z,94.90
2023-11-25T06:26:58.322Z,95.23
2023-11-25T06:29:25.802Z,95.29
2023-11-25T06:31:53.284Z,95.12
2023-11-25T06:34:20.969Z,95.03
2023-11-25T06:36:49.322Z,95.28
2023-11-25T06:39:20.289Z,95.44
2023-11-25T06:41:50.758Z,95.38
2023-11-25T06:44:18.630Z,95.41
2023-11-25T06:46:47.220Z,94.83
2023-11-25T06:49:15.027Z,95.21
2023-11-25T06:51:43.189Z,95.53
2023-11-25T06:54:10.822Z,95.14
2023-11-25T06:56:39.369Z,95.25
2023-11-25T06:59:08.329Z,95.07
2023-11-25T07:01:36.095Z,95.15
2023-11-25T07:04:05.415Z,95.28
2023-11-25T07:06:33.022Z,95.22
2023-11-25T07:09:01.585Z,94.97
2023-11-25T07:11:31.537Z,95.31
2023-11-25T07:13:59.144Z,95.48
2023-11-25T07:16:28.066Z,95.19
2023-11-25T07:18:56.049Z,95.44
2023-11-25T07:21:25.125Z,95.28
2023-11-25T07:23:52.699Z,95.42
2023-11-25T07:26:20.516Z,95.72
2023-11-25T07:28:48.081Z,95.27
2023-11-25T07:31:16.013Z,95.73
2023-11-25T07:33:45.732Z,95.48
2023-11-25T07:36:14.836Z,96.13
2023-11-25T07:38:42.996Z,95.87
2023-11-25T07:41:17.577Z,95.69
2023-11-25T07:43:45.284Z,96.14
2023-11-25T07:46:12.959Z,96.06
2023-11-25T07:48:40.536Z,96.58
2023-11-25T07:51:09.507Z,96.54
2023-11-25T07:53:37.392Z,96.74
2023-11-25T07:56:06.246Z,96.81
2023-11-25T07:58:33.797Z,97.13
2023-11-25T08:01:01.331Z,97.10
2023-11-25T08:03:29.007Z,97.10
2023-11-25T08:05:56.915Z,97.11
2023-11-25T08:08:26.641Z,97.29
2023-11-25T08:10:54.298Z,97.24
2023-11-25T08:13:22.031Z,96.70
2023-11-25T08:15:50.367Z,96.94
2023-11-25T08:18:19.369Z,97.32
2023-11-25T08:20:47.527Z,97.25
2023-11-25T08:23:16.449Z,97.33
2023-11-25T08:25:45.553Z,97.21
2023-11-25T08:28:13.402Z,97.29
2023-11-25T08:30:41.094Z,97.60
2023-11-25T08:33:08.761Z,97.32
2023-11-25T08:35:36.469Z,97.64
2023-11-25T08:38:04.420Z,97.47
2023-11-25T08:40:32.688Z,97.36
2023-11-25T08:43:05.216Z,97.46
2023-11-25T08:45:33.190Z,96.85
2023-11-25T08:48:00.848Z,96.78
2023-11-25T08:50:29.878Z,96.97
2023-11-25T08:52:58.080Z,97.08
2023-11-25T08:55:25.733Z,96.87
2023-11-25T08:57:53.440Z,96.50
2023-11-25T09:00:22.896Z,97.02
2023-11-25T09:02:53.764Z,96.71
2023-11-25T09:05:23.680Z,97.08
2023-11-25T09:07:52.876Z,97.21
2023-11-25T09:10:20.829Z,97.14
2023-11-25T09:12:48.436Z,97.03
2023-11-25T09:15:16.031Z,97.21
2023-11-25T09:17:44.931Z,97.14
2023-11-25T09:20:16.631Z,97.40
2023-11-25T09:22:44.990Z,97.14
2023-11-25T09:25:13.410Z,97.85
2023-11-25T09:27:41.265Z,97.64
2023-11-25T09:30:12.455Z,97.96
2023-11-25T09:32:40.712Z,97.46
2023-11-25T09:35:11.981Z,97.37
2023-11-25T09:37:39.836Z,97.59
2023-11-25T09:40:15.181Z,97.58
2023-11-25T09:42:44.300Z,97.61
2023-11-25T09:45:12.920Z,97.47
2023-11-25T09:47:44.362Z,97.62
2023-11-25T09:50:14.315Z,97.53
2023-11-25T09:52:51.304Z,97.46
2023-11-25T09:55:19.993Z,97.93
2023-11-25T09:57:51.913Z,97.30
2023-11-25T10:00:22.405Z,97.59
2023-11-25T10:02:53.850Z,97.78
2023-11-25T10:05:23.152Z,97.67
2023-11-25T10:07:50.730Z,97.48
2023-11-25T10:10:24.824Z,97.46
2023-11-25T10:12:52.887Z,97.74
2023-11-25T10:15:21.262Z,97.62
2023-11-25T10:17:50.804Z,97.74
2023-11-25T10:20:21.308Z,97.77
2023-11-25T10:22:54.260Z,97.80
2023-11-25T10:25:23.005Z,97.70
2023-11-25T10:27:52.271Z,97.76
2023-11-25T10:30:21.670Z,97.99
2023-11-25T10:32:53.330Z,98.02
2023-11-25T10:35:20.952Z,97.98
2023-11-25T10:37:49.986Z,97.99
2023-11-25T10:40:18.191Z,97.72
2023-11-25T10:42:47.398Z,98.04
2023-11-25T10:45:18.748Z,98.16
2023-11-25T10:47:46.775Z,98.16
2023-11-25T10:50:15.246Z,98.40
2023-11-25T10:52:45.840Z,98.13
2023-11-25T10:55:16.281Z,98.05
2023-11-25T10:57:47.882Z,98.16
2023-11-25T11:00:18.555Z,98.07
2023-11-25T11:02:48.972Z,97.91
2023-11-25T11:05:20.433Z,97.95
2023-11-25T11:07:50.953Z,98.10
2023-11-25T11:10:27.286Z,97.83
2023-11-25T11:13:01.102Z,98.37
2023-11-25T11:15:32.500Z,97.82
2023-11-25T11:18:12.056Z,97.87
2023-11-25T11:20:47.328Z,97.99
2023-11-25T11:23:16.754Z,98.23
2023-11-25T11:25:58.581Z,98.24
2023-11-25T11:28:38.540Z,98.16
2023-11-25T11:31:42.078Z,98.46
2023-11-25T11:34:09.841Z,98.21
2023-11-25T11:36:37.653Z,97.96
2023-11-25T11:39:05.501Z,98.37
2023-11-25T11:41:36.969Z,98.49
2023-11-25T11:44:06.093Z,98.33
2023-11-25T11:46:39.359Z,98.36
2023-11-25T11:49:08.178Z,98.05
2023-11-25T11:51:35.738Z,98.17
2023-11-25T11:54:25.451Z,98.10
2023-11-25T11:57:04.849Z,97.95
2023-11-25T12:00:12.517Z,97.60
2023-11-25T12:02:43.550Z,97.12
2023-11-25T12:05:11.992Z,97.17
2023-11-25T12:07:39.720Z,97.33
2023-11-25T12:10:08.107Z,97.03
2023-11-25T12:12:43.342Z,97.33
2023-11-25T12:15:11.465Z,97.29
2023-11-25T12:17:39.764Z,97.50
2023-11-25T12:20:09.828Z,97.34
2023-11-25T12:22:37.430Z,97.57
2023-11-25T12:25:05.858Z,97.32
2023-11-25T12:27:35.690Z,97.58
2023-11-25T12:30:05.174Z,97.09
2023-11-25T12:32:32.835Z,97.64
2023-11-25T12:35:00.498Z,97.21
2023-11-25T12:37:28.507Z,97.41
2023-11-25T12:39:56.045Z,97.31
2023-11-25T12:42:25.054Z,97.06
2023-11-25T12:44:54.741Z,97.07
2023-11-25T12:47:23.643Z,97.22
2023-11-25T12:49:52.193Z,97.05
2023-11-25T12:52:20.605Z,97.54
2023-11-25T12:54:50.284Z,97.29
2023-11-25T12:57:19.274Z,97.34
2023-11-25T12:59:47.351Z,96.95
2023-11-25T13:02:18.542Z,97.27
2023-11-25T13:04:48.477Z,97.23
2023-11-25T13:07:29.761Z,97.00
2023-11-25T13:09:57.268Z,97.29
2023-11-25T13:12:25.209Z,97.37
2023-11-25T13:14:53.139Z,97.43
2023-11-25T13:17:20.796Z,97.28
2023-11-25T13:19:49.834Z,97.22
2023-11-25T13:22:17.797Z,97.69
2023-11-25T13:24:45.848Z,97.49
2023-11-25T13:27:13.936Z,97.66
2023-11-25T13:29:43.142Z,97.69
2023-11-25T13:32:11.887Z,97.35
2023-11-25T13:34:40.944Z,97.75
2023-11-25T13:37:09.812Z,97.77
2023-11-25T13:39:37.362Z,98.02
2023-11-25T13:42:05.978Z,98.17
2023-11-25T13:44:33.747Z,97.83
2023-11-25T13:47:01.801Z,98.11
2023-11-25T13:49:30.801Z,98.26
2023-11-25T13:51:58.770Z,98.20
2023-11-25T13:54:27.681Z,98.38
2023-11-25T13:56:57.371Z,98.00
2023-11-25T13:59:25.234Z,98.23
2023-11-25T14:01:53.059Z,98.04
2023-11-25T14:04:22.705Z,98.18
2023-11-25T14:06:50.340Z,97.96
2023-11-25T14:09:19.047Z,97.72
2023-11-25T14:11:48.390Z,98.14
2023-11-25T14:14:16.584Z,97.27
2023-11-25T14:16:49.634Z,97.82
2023-11-25T14:19:18.380Z,97.86
2023-11-25T14:21:46.048Z,97.93
2023-11-25T14:24:13.643Z,97.89
2023-11-25T14:26:41.186Z,98.03
2023-11-25T14:29:10.136Z,97.83
2023-11-25T14:31:37.886Z,97.94
2023-11-25T14:34:05.679Z,98.26
2023-11-25T14:36:33.237Z,97.77
2023-11-25T14:39:00.788Z,97.30
2023-11-25T14:41:28.479Z,97.93
2023-11-25T14:43:56.094Z,98.09
2023-11-25T14:46:25.087Z,97.76
2023-11-25T14:48:52.682Z,97.88
2023-11-25T14:51:20.256Z,97.09
2023-11-25T14:53:47.824Z,97.39
2023-11-25T14:56:15.473Z,96.99
2023-11-25T14:58:43.057Z,96.95
2023-11-25T15:01:10.914Z,97.30
2023-11-25T15:03:40.972Z,96.88
2023-11-25T15:06:10.379Z,96.86
2023-11-25T15:08:38.082Z,96.43
2023-11-25T15:11:06.331Z,96.49
2023-11-25T15:13:34.127Z,97.06
2023-11-25T15:16:02.097Z,96.26
2023-11-25T15:18:30.147Z,96.71
2023-11-25T15:21:02.550Z,96.61
2023-11-25T15:23:30.127Z,96.45
2023-11-25T15:25:58.480Z,96.22
2023-11-25T15:28:26.097Z,96.66
2023-11-25T15:30:53.873Z,96.74
2023-11-25T15:33:21.478Z,96.65
2023-11-25T15:35:49.222Z,96.61
2023-11-25T15:38:18.384Z,96.85
2023-11-25T15:40:46.690Z,96.88
2023-11-25T15:43:15.594Z,96.76
2023-11-25T15:45:43.805Z,96.55
2023-11-25T15:48:12.633Z,96.43
2023-11-25T15:50:42.216Z,96.20
2023-11-25T15:53:13.631Z,96.48
2023-11-25T15:55:42.815Z,96.78
2023-11-25T15:58:13.158Z,96.47
2023-11-25T16:00:41.462Z,96.84
2023-11-25T16:03:09.540Z,96.32
2023-11-25T16:05:37.344Z,96.80
2023-11-25T16:08:05.544Z,95.94
2023-11-25T16:10:35.771Z,96.41
2023-11-25T16:13:04.663Z,96.17
2023-11-25T16:15:32.236Z,96.40
2023-11-25T16:18:00.226Z,96.63
2023-11-25T16:20:30.442Z,96.83
2023-11-25T16:22:58.548Z,97.04
2023-11-25T16:25:26.818Z,96.92
2023-11-25T16:27:54.432Z,97.01
2023-11-25T16:30:24.963Z,96.55
2023-11-25T16:32:52.647Z,96.67
2023-11-25T16:35:21.312Z,97.00
2023-11-25T16:37:50.711Z,96.32
2023-11-25T16:40:20.120Z,96.94
2023-11-25T16:42:47.801Z,96.68
2023-11-25T16:45:17.099Z,97.02
2023-11-25T16:47:46.044Z,97.38
2023-11-25T16:50:14.312Z,96.98
2023-11-25T16:52:42.102Z,97.34
2023-11-25T16:55:10.132Z,96.90
2023-11-25T16:57:38.857Z,96.97
2023-11-25T17:00:07.969Z,97.23
2023-11-25T17:02:35.891Z,97.16
2023-11-25T17:05:05.718Z,97.63
2023-11-25T17:07:34.148Z,97.46
2023-11-25T17:10:05.003Z,97.55
2023-11-25T17:12:32.816Z,97.85
2023-11-25T17:15:00.482Z,98.10
2023-11-25T17:17:28.251Z,97.76
2023-11-25T17:19:57.392Z,97.92
2023-11-25T17:22:26.386Z,98.04
2023-11-25T17:24:53.885Z,98.40
2023-11-25T17:27:22.101Z,98.02
2023-11-25T17:29:49.691Z,98.22
2023-11-25T17:32:17.398Z,98.31
2023-11-25T17:34:45.081Z,98.06
2023-11-25T17:37:13.964Z,98.18
2023-11-25T17:39:42.918Z,98.47
2023-11-25T17:42:10.521Z,98.84
2023-11-25T17:44:38.129Z,98.43
2023-11-25T17:47:07.710Z,98.74
2023-11-25T17:49:35.532Z,98.63
2023-11-25T17:52:04.924Z,98.51
2023-11-25T17:54:32.530Z,98.63
2023-11-25T17:57:02.568Z,98.82
2023-11-25T17:59:30.254Z,98.94
2023-11-25T18:01:59.122Z,98.32
2023-11-25T18:04:26.970Z,98.01
2023-11-25T18:06:54.533Z,98.26
2023-11-25T18:09:22.252Z,98.09
2023-11-25T18:11:50.386Z,97.72
2023-11-25T18:14:19.370Z,97.66
2023-11-25T18:16:47.639Z,97.57
2023-11-25T18:19:15.746Z,97.47
2023-11-25T18:21:43.439Z,97.30
2023-11-25T18:24:11.610Z,97.27
2023-11-25T18:26:39.210Z,96.61
2023-11-25T18:29:06.985Z,97.03
2023-11-25T18:31:36.038Z,96.66
2023-11-25T18:34:03.760Z,96.27
2023-11-25T18:36:31.859Z,96.57
2023-11-25T18:38:59.491Z,96.39
2023-11-25T18:41:27.116Z,96.09
2023-11-25T18:43:55.547Z,96.47
2023-11-25T18:46:24.600Z,96.51
2023-11-25T18:48:53.601Z,96.55
2023-11-25T18:51:21.215Z,96.20
2023-11-25T18:53:48.829Z,96.48
2023-11-25T18:56:16.464Z,96.20
2023-11-25T18:58:45.329Z,96.18
2023-11-25T19:01:15.946Z,96.48
2023-11-25T19:03:43.873Z,96.28
2023-11-25T19:06:13.129Z,96.56
2023-11-25T19:08:40.909Z,97.12
2023-11-25T19:11:09.272Z,96.63
2023-11-25T19:13:37.182Z,96.56
2023-11-25T19:16:05.429Z,96.83
2023-11-25T19:18:33.625Z,96.80
2023-11-25T19:21:01.605Z,96.76
2023-11-25T19:23:32.357Z,97.15
2023-11-25T19:26:04.004Z,97.04
2023-11-25T19:28:31.892Z,96.74
2023-11-25T19:30:59.884Z,96.64
2023-11-25T19:33:27.753Z,97.16
2023-11-25T19:35:55.652Z,97.46
2023-11-25T19:38:23.569Z,96.52
2023-11-25T19:40:52.608Z,97.29
2023-11-25T19:43:20.309Z,96.95
2023-11-25T19:45:48.115Z,97.06
2023-11-25T19:48:15.931Z,96.70
2023-11-25T19:50:43.737Z,96.49
2023-11-25T19:53:11.791Z,96.37
2023-11-25T19:55:39.589Z,95.76
2023-11-25T19:58:09.215Z,96.30
2023-11-25T20:00:49.143Z,96.16
2023-11-25T20:03:23.660Z,95.93
2023-11-25T20:05:51.528Z,96.36
2023-11-25T20:08:20.662Z,96.42
2023-11-25T20:10:49.256Z,96.95
2023-11-25T20:13:19.316Z,97.10
2023-11-25T20:15:49.913Z,97.48
2023-11-25T20:18:23.452Z,97.61
2023-11-25T20:20:53.171Z,97.64
2023-11-25T20:23:21.208Z,97.85
2023-11-25T20:25:49.075Z,98.08
2023-11-25T20:28:18.362Z,97.72
2023-11-25T20:30:46.461Z,97.50
2023-11-25T20:33:15.596Z,97.92
2023-11-25T20:35:50.452Z,97.75
2023-11-25T20:38:18.415Z,98.03
2023-11-25T20:40:46.426Z,97.34
2023-11-25T20:43:14.312Z,98.07
2023-11-25T20:45:43.701Z,97.73
2023-11-25T20:48:11.592Z,98.05
2023-11-25T20:50:41.037Z,98.05
2023-11-25T20:53:09.244Z,98.23
2023-11-25T20:55:37.458Z,97.93
2023-11-25T20:58:05.523Z,98.11
2023-11-25T21:00:34.599Z,98.38
2023-11-25T21:03:09.670Z,98.30
2023-11-25T21:05:37.623Z,98.76
2023-11-25T21:08:06.215Z,98.50
2023-11-25T21:10:34.321Z,98.60
2023-11-25T21:13:02.665Z,98.86
2023-11-25T21:15:30.572Z,99.02
2023-11-25T21:17:59.174Z,99.21
2023-11-25T21:20:28.512Z,99.29
2023-11-25T21:22:56.588Z,98.88
2023-11-25T21:25:24.573Z,99.11
2023-11-25T21:27:54.690Z,99.15
2023-11-25T21:30:22.576Z,99.24
2023-11-25T21:32:50.980Z,98.71
2023-11-25T21:35:19.038Z,98.60
2023-11-25T21:37:48.312Z,99.14
2023-11-25T21:40:22.902Z,98.66
2023-11-25T21:42:51.502Z,98.75
2023-11-25T21:45:19.512Z,98.48
2023-11-25T21:47:47.597Z,98.60
2023-11-25T21:50:15.389Z,98.51
2023-11-25T21:52:43.150Z,98.44
2023-11-25T21:55:12.298Z,98.14
2023-11-25T21:57:40.642Z,98.50
2023-11-25T22:00:11.386Z,98.43
2023-11-25T22:02:39.345Z,98.44
2023-11-25T22:05:09.939Z,98.73
2023-11-25T22:07:37.930Z,98.48
2023-11-25T22:10:09.506Z,98.47
2023-11-25T22:12:41.716Z,98.40
2023-11-25T22:15:11.143Z,98.34
2023-11-25T22:17:38.734Z,98.04
2023-11-25T22:20:09.076Z,98.50
2023-11-25T22:22:36.751Z,98.15
2023-11-25T22:25:11.358Z,98.19
2023-11-25T22:27:39.827Z,98.46
2023-11-25T22:30:12.655Z,97.81
2023-11-25T22:32:40.385Z,98.03
2023-11-25T22:35:08.780Z,98.31
2023-11-25T22:37:37.653Z,98.20
2023-11-25T22:40:05.788Z,97.98
2023-11-25T22:42:33.347Z,98.35
2023-11-25T22:45:00.865Z,98.06
2023-11-25T22:47:29.882Z,98.37
2023-11-25T22:49:57.929Z,98.26
2023-11-25T22:52:25.873Z,98.52
2023-11-25T22:54:54.385Z,98.26
2023-11-25T22:57:21.965Z,98.21
2023-11-25T22:59:53.520Z,98.46
2023-11-25T23:02:21.606Z,98.56
2023-11-25T23:04:50.808Z,98.97
2023-11-25T23:07:18.361Z,98.36
2023-11-25T23:09:45.966Z,98.54
2023-11-25T23:12:13.794Z,98.66
2023-11-25T23:14:42.975Z,98.72
2023-11-25T23:17:11.604Z,98.33
2023-11-25T23:19:39.348Z,98.96
2023-11-25T23:22:08.260Z,99.13
2023-11-25T23:24:35.866Z,98.99
2023-11-25T23:27:05.013Z,98.92
2023-11-25T23:29:32.624Z,99.23
2023-11-25T23:32:00.251Z,99.36
2023-11-25T23:34:27.988Z,99.52
2023-11-25T23:36:55.532Z,99.53
2023-11-25T23:39:24.420Z,99.50
2023-11-25T23:41:52.300Z,99.69
2023-11-25T23:44:20.161Z,99.68
2023-11-25T23:46:47.760Z,99.64
2023-11-25T23:49:15.327Z,99.61
2023-11-25T23:51:42.926Z,99.85
2023-11-25T23:54:10.449Z,99.92
2023-11-25T23:56:39.506Z,99.98
2023-11-25T23:59:07.126Z,99.82
